createdAt,value
2017-08-20T00:00:58.447Z,2.53
2017-08-20T00:03:27.699Z,2.67
2017-08-20T00:05:56.169Z,2.17
2017-08-20T00:08:24.703Z,2.13
2017-08-20T00:10:53.160Z,2.00
2017-08-20T00:13:21.634Z,2.77
2017-08-20T00:15:50.103Z,2.53
2017-08-20T00:18:18.586Z,2.53
2017-08-20T00:20:47.041Z,2.70
2017-08-20T00:23:15.491Z,2.33
2017-08-20T00:25:44.136Z,2.77
2017-08-20T00:28:12.590Z,2.60
2017-08-20T00:30:41.052Z,2.23
2017-08-20T00:33:09.836Z,2.07
2017-08-20T00:35:38.306Z,2.00
2017-08-20T00:38:06.772Z,2.27
2017-08-20T00:40:35.251Z,2.07
2017-08-20T00:43:03.750Z,2.20
2017-08-20T00:45:32.221Z,2.57
2017-08-20T00:48:00.696Z,2.27
2017-08-20T00:50:29.152Z,2.07
2017-08-20T00:52:57.773Z,1.90
2017-08-20T00:55:26.247Z,2.30
2017-08-20T00:57:54.706Z,2.63
2017-08-20T01:00:22.831Z,2.10
2017-08-20T01:02:51.323Z,2.30
2017-08-20T01:05:19.960Z,3.03
2017-08-20T01:07:48.540Z,2.10
2017-08-20T01:10:16.995Z,2.40
2017-08-20T01:12:45.472Z,2.70
2017-08-20T01:15:14.687Z,2.07
2017-08-20T01:17:43.166Z,2.60
2017-08-20T01:20:11.274Z,3.17
2017-08-20T01:22:39.743Z,2.23
2017-08-20T01:25:08.196Z,2.20
2017-08-20T01:27:36.662Z,2.23
2017-08-20T01:30:05.908Z,2.30
2017-08-20T01:32:34.371Z,2.40
2017-08-20T01:35:02.839Z,3.00
2017-08-20T01:37:32.062Z,3.10
2017-08-20T01:40:00.531Z,2.40
2017-08-20T01:42:28.983Z,2.63
2017-08-20T01:44:57.432Z,2.77
2017-08-20T01:47:26.010Z,2.43
2017-08-20T01:49:54.463Z,2.77
2017-08-20T01:52:22.952Z,2.60
2017-08-20T01:54:51.413Z,2.70
2017-08-20T01:57:20.663Z,2.60
2017-08-20T01:59:49.120Z,2.30
2017-08-20T02:02:17.648Z,2.77
2017-08-20T02:04:46.123Z,2.10
2017-08-20T02:07:14.668Z,2.60
2017-08-20T02:09:42.947Z,2.60
2017-08-20T02:12:11.403Z,2.57
2017-08-20T02:14:40.652Z,2.30
2017-08-20T02:17:10.066Z,3.10
2017-08-20T02:19:38.531Z,2.50
2017-08-20T02:22:06.984Z,2.90
2017-08-20T02:24:35.462Z,2.60
2017-08-20T02:27:04.006Z,2.87
2017-08-20T02:29:32.471Z,2.07
2017-08-20T02:32:00.941Z,2.30
2017-08-20T02:34:29.416Z,2.20
2017-08-20T02:36:57.798Z,2.20
2017-08-20T02:39:26.251Z,2.40
2017-08-20T02:41:55.463Z,2.80
2017-08-20T02:44:23.927Z,2.70
2017-08-20T02:46:53.160Z,2.40
2017-08-20T02:49:21.635Z,2.10
2017-08-20T02:51:50.263Z,2.80
2017-08-20T02:54:18.748Z,2.73
2017-08-20T02:56:47.198Z,2.03
2017-08-20T02:59:15.660Z,2.60
2017-08-20T03:01:44.296Z,2.90
2017-08-20T03:04:12.852Z,2.57
2017-08-20T03:06:41.314Z,2.90
2017-08-20T03:09:09.822Z,2.43
2017-08-20T03:11:38.299Z,2.23
2017-08-20T03:14:06.763Z,2.37
2017-08-20T03:16:35.210Z,3.30
2017-08-20T03:19:03.850Z,3.03
2017-08-20T03:21:32.307Z,3.00
2017-08-20T03:24:00.777Z,2.50
2017-08-20T03:26:29.994Z,2.70
2017-08-20T03:28:58.453Z,2.70
2017-08-20T03:31:27.691Z,3.30
2017-08-20T03:33:56.312Z,3.10
2017-08-20T03:36:24.787Z,3.60
2017-08-20T03:38:53.243Z,3.20
2017-08-20T03:41:21.703Z,2.80
2017-08-20T03:43:50.161Z,2.67
2017-08-20T03:46:19.391Z,2.57
2017-08-20T03:48:47.877Z,2.70
2017-08-20T03:51:16.331Z,3.00
2017-08-20T03:53:45.203Z,2.80
2017-08-20T03:56:13.684Z,2.50
2017-08-20T03:58:42.175Z,2.80
2017-08-20T04:01:10.437Z,2.50
2017-08-20T04:03:38.891Z,3.03
2017-08-20T04:06:07.366Z,2.90
2017-08-20T04:08:35.877Z,2.67
2017-08-20T04:11:04.335Z,2.90
2017-08-20T04:13:32.811Z,3.10
2017-08-20T04:16:01.269Z,2.90
2017-08-20T04:18:29.740Z,3.10
2017-08-20T04:20:59.083Z,3.00
2017-08-20T04:23:27.562Z,3.50
2017-08-20T04:25:56.027Z,2.87
2017-08-20T04:28:24.611Z,2.80
2017-08-20T04:30:53.074Z,3.00
2017-08-20T04:33:22.300Z,3.00
2017-08-20T04:35:50.772Z,2.90
2017-08-20T04:38:19.251Z,2.70
2017-08-20T04:40:47.718Z,3.07
2017-08-20T04:43:16.961Z,2.77
2017-08-20T04:45:45.419Z,2.20
2017-08-20T04:48:13.891Z,2.60
2017-08-20T04:50:43.106Z,3.03
2017-08-20T04:53:12.331Z,2.43
2017-08-20T04:55:40.819Z,2.27
2017-08-20T04:58:09.287Z,2.23
2017-08-20T05:00:37.760Z,2.53
2017-08-20T05:03:06.230Z,2.70
2017-08-20T05:05:34.684Z,2.00
2017-08-20T05:08:03.220Z,2.40
2017-08-20T05:10:31.714Z,2.80
2017-08-20T05:13:00.164Z,1.97
2017-08-20T05:15:28.635Z,2.70
2017-08-20T05:17:57.924Z,2.13
2017-08-20T05:20:27.161Z,2.63
2017-08-20T05:22:55.615Z,2.60
2017-08-20T05:25:24.837Z,2.53
2017-08-20T05:27:53.450Z,2.70
2017-08-20T05:30:21.907Z,2.30
2017-08-20T05:32:50.411Z,2.70
2017-08-20T05:35:18.880Z,2.10
2017-08-20T05:37:47.330Z,2.47
2017-08-20T05:40:16.675Z,2.07
2017-08-20T05:42:45.131Z,2.13
2017-08-20T05:45:13.784Z,2.07
2017-08-20T05:47:43.011Z,2.60
2017-08-20T05:50:11.479Z,2.20
2017-08-20T05:52:40.820Z,2.10
2017-08-20T05:55:09.266Z,2.50
2017-08-20T05:57:38.503Z,2.47
2017-08-20T06:00:06.963Z,2.20
2017-08-20T06:02:35.440Z,2.10
2017-08-20T06:05:04.744Z,2.20
2017-08-20T06:07:33.212Z,1.90
2017-08-20T06:10:02.424Z,2.40
2017-08-20T06:12:30.885Z,2.33
2017-08-20T06:15:00.287Z,2.27
2017-08-20T06:17:29.548Z,2.70
2017-08-20T06:19:58.013Z,2.93
2017-08-20T06:22:26.492Z,2.43
2017-08-20T06:24:54.959Z,2.43
2017-08-20T06:27:23.416Z,3.00
2017-08-20T06:29:52.679Z,2.70
2017-08-20T06:32:21.142Z,2.40
2017-08-20T06:34:49.638Z,2.70
2017-08-20T06:37:18.206Z,2.07
2017-08-20T06:39:46.687Z,2.83
2017-08-20T06:42:15.172Z,2.43
2017-08-20T06:44:43.641Z,1.97
2017-08-20T06:47:12.118Z,2.00
2017-08-20T06:49:40.612Z,2.87
2017-08-20T06:52:09.087Z,2.13
2017-08-20T06:54:37.539Z,2.20
2017-08-20T06:57:06.134Z,1.73
2017-08-20T06:59:35.370Z,2.17
2017-08-20T07:02:03.838Z,2.00
2017-08-20T07:04:32.370Z,1.70
2017-08-20T07:07:00.839Z,2.10
2017-08-20T07:09:29.311Z,1.70
2017-08-20T07:11:57.778Z,1.93
2017-08-20T07:14:26.283Z,1.93
2017-08-20T07:16:54.798Z,2.00
2017-08-20T07:19:23.255Z,1.90
2017-08-20T07:21:51.715Z,1.73
2017-08-20T07:24:20.207Z,2.33
2017-08-20T07:26:48.664Z,1.90
2017-08-20T07:29:17.135Z,1.80
2017-08-20T07:31:45.591Z,1.67
2017-08-20T07:34:14.244Z,3.13
2017-08-20T07:36:42.705Z,1.60
2017-08-20T07:39:11.173Z,2.17
2017-08-20T07:41:39.655Z,1.63
2017-08-20T07:44:08.271Z,1.60
2017-08-20T07:46:38.423Z,1.50
2017-08-20T07:49:06.968Z,2.30
2017-08-20T07:51:35.444Z,2.20
2017-08-20T07:54:03.929Z,1.80
2017-08-20T07:56:32.399Z,1.53
2017-08-20T07:59:00.884Z,1.37
2017-08-20T08:01:29.336Z,1.57
2017-08-20T08:03:58.580Z,1.97
2017-08-20T08:06:27.038Z,1.87
2017-08-20T08:08:55.502Z,1.57
2017-08-20T08:11:24.039Z,1.60
2017-08-20T08:13:52.495Z,1.80
2017-08-20T08:16:20.995Z,2.43
2017-08-20T08:18:49.443Z,2.13
2017-08-20T08:21:18.735Z,1.67
2017-08-20T08:23:47.967Z,1.13
2017-08-20T08:26:16.431Z,2.07
2017-08-20T08:28:44.924Z,2.70
2017-08-20T08:31:13.413Z,1.57
2017-08-20T08:33:41.888Z,1.63
2017-08-20T08:36:10.509Z,1.40
2017-08-20T08:38:38.986Z,1.50
2017-08-20T08:41:07.487Z,1.30
2017-08-20T08:43:35.952Z,2.53
2017-08-20T08:46:04.427Z,1.70
2017-08-20T08:48:32.886Z,1.87
2017-08-20T08:51:01.371Z,1.80
2017-08-20T08:53:29.855Z,1.60
2017-08-20T08:55:58.461Z,1.20
2017-08-20T08:58:26.954Z,1.30
2017-08-20T09:00:55.431Z,1.33
2017-08-20T09:03:23.986Z,1.47
2017-08-20T09:05:52.456Z,1.50
2017-08-20T09:08:21.774Z,1.13
2017-08-20T09:10:50.247Z,1.30
2017-08-20T09:13:18.847Z,1.43
2017-08-20T09:15:47.315Z,1.50
2017-08-20T09:18:15.778Z,1.70
2017-08-20T09:20:45.039Z,1.90
2017-08-20T09:23:13.144Z,1.60
2017-08-20T09:25:42.370Z,1.60
2017-08-20T09:28:10.851Z,1.90
2017-08-20T09:30:39.316Z,1.43
2017-08-20T09:33:08.611Z,1.83
2017-08-20T09:35:37.840Z,1.67
2017-08-20T09:38:06.311Z,1.83
2017-08-20T09:40:34.799Z,1.77
2017-08-20T09:43:03.264Z,1.60
2017-08-20T09:45:32.524Z,1.83
2017-08-20T09:48:01.066Z,1.67
2017-08-20T09:50:29.544Z,1.40
2017-08-20T09:52:58.018Z,1.77
2017-08-20T09:55:27.369Z,2.20
2017-08-20T09:57:55.818Z,1.70
2017-08-20T10:00:24.279Z,1.73
2017-08-20T10:02:53.582Z,1.87
2017-08-20T10:05:22.813Z,1.63
2017-08-20T10:07:51.303Z,1.93
2017-08-20T10:10:19.791Z,1.63
2017-08-20T10:12:48.270Z,1.60
2017-08-20T10:15:16.719Z,1.27
2017-08-20T10:17:46.035Z,1.30
2017-08-20T10:20:14.515Z,1.90
2017-08-20T10:22:42.968Z,1.73
2017-08-20T10:25:11.494Z,2.10
2017-08-20T10:27:39.963Z,1.73
2017-08-20T10:30:08.456Z,1.50
2017-08-20T10:32:36.937Z,1.50
2017-08-20T10:35:05.414Z,1.53
2017-08-20T10:37:33.969Z,2.07
2017-08-20T10:40:03.421Z,1.70
2017-08-20T10:42:31.903Z,1.90
2017-08-20T10:45:00.515Z,1.20
2017-08-20T10:47:28.993Z,1.40
2017-08-20T10:49:57.526Z,1.43
2017-08-20T10:52:25.994Z,2.50
2017-08-20T10:54:55.239Z,2.00
2017-08-20T10:57:23.715Z,1.60
2017-08-20T10:59:52.198Z,1.70
2017-08-20T11:02:20.735Z,1.53
2017-08-20T11:04:49.964Z,1.63
2017-08-20T11:07:18.588Z,1.47
2017-08-20T11:09:47.276Z,1.93
2017-08-20T11:12:15.740Z,1.27
2017-08-20T11:14:44.210Z,1.53
2017-08-20T11:17:12.843Z,1.57
2017-08-20T11:19:41.309Z,1.83
2017-08-20T11:22:09.762Z,1.50
2017-08-20T11:24:38.241Z,1.47
2017-08-20T11:27:06.854Z,1.13
2017-08-20T11:29:35.328Z,1.60
2017-08-20T11:32:03.793Z,1.30
2017-08-20T11:34:32.251Z,1.40
2017-08-20T11:37:01.648Z,1.37
2017-08-20T11:39:30.891Z,1.20
2017-08-20T11:41:59.364Z,1.60
2017-08-20T11:44:27.841Z,2.47
2017-08-20T11:46:56.329Z,1.63
2017-08-20T11:49:24.795Z,1.83
2017-08-20T11:51:53.269Z,1.83
2017-08-20T11:54:22.524Z,1.67
2017-08-20T11:56:50.982Z,2.43
2017-08-20T11:59:19.475Z,2.17
2017-08-20T12:01:47.940Z,1.63
2017-08-20T12:04:16.483Z,1.63
2017-08-20T12:06:45.730Z,1.70
2017-08-20T12:09:14.226Z,1.77
2017-08-20T12:11:42.723Z,1.50
2017-08-20T12:14:11.223Z,1.60
2017-08-20T12:16:39.700Z,1.70
2017-08-20T12:19:08.159Z,1.40
2017-08-20T12:21:36.684Z,1.30
2017-08-20T12:24:05.928Z,1.53
2017-08-20T12:26:34.452Z,1.73
2017-08-20T12:29:02.913Z,1.50
2017-08-20T12:31:31.388Z,2.10
2017-08-20T12:33:59.856Z,1.40
2017-08-20T12:36:28.339Z,1.60
2017-08-20T12:38:56.930Z,1.70
2017-08-20T12:41:25.383Z,1.33
2017-08-20T12:43:53.869Z,1.30
2017-08-20T12:46:22.367Z,1.40
2017-08-20T12:48:50.840Z,1.90
2017-08-20T12:51:19.319Z,1.50
2017-08-20T12:53:47.792Z,1.20
2017-08-20T12:56:16.384Z,1.40
2017-08-20T12:58:45.834Z,1.53
2017-08-20T13:01:15.320Z,1.27
2017-08-20T13:03:43.779Z,1.40
2017-08-20T13:06:12.306Z,1.67
2017-08-20T13:08:40.784Z,1.43
2017-08-20T13:11:09.248Z,1.50
2017-08-20T13:13:39.180Z,1.53
2017-08-20T13:16:07.641Z,1.57
2017-08-20T13:18:36.122Z,1.80
2017-08-20T13:21:05.502Z,1.80
2017-08-20T13:23:34.077Z,1.50
2017-08-20T13:26:03.331Z,1.63
2017-08-20T13:28:31.788Z,1.70
2017-08-20T13:31:00.243Z,1.80
2017-08-20T13:33:29.484Z,1.50
2017-08-20T13:35:58.088Z,1.57
2017-08-20T13:38:26.609Z,1.87
2017-08-20T13:40:55.846Z,1.57
2017-08-20T13:43:24.311Z,1.50
2017-08-20T13:45:52.802Z,1.50
2017-08-20T13:48:21.254Z,1.80
2017-08-20T13:50:50.523Z,2.00
2017-08-20T13:53:18.999Z,1.40
2017-08-20T13:55:47.471Z,1.53
2017-08-20T13:58:15.969Z,1.30
2017-08-20T14:00:44.456Z,1.70
2017-08-20T14:03:13.072Z,1.50
2017-08-20T14:05:42.329Z,2.10
2017-08-20T14:08:10.918Z,1.70
2017-08-20T14:10:39.409Z,2.07
2017-08-20T14:13:07.867Z,2.30
2017-08-20T14:15:36.356Z,1.50
2017-08-20T14:18:04.856Z,2.10
2017-08-20T14:20:33.427Z,1.77
2017-08-20T14:23:01.988Z,1.40
2017-08-20T14:25:30.451Z,1.87
2017-08-20T14:27:58.931Z,2.20
2017-08-20T14:30:27.392Z,1.53
2017-08-20T14:32:55.874Z,1.67
2017-08-20T14:35:25.108Z,1.77
2017-08-20T14:37:53.588Z,1.53
2017-08-20T14:40:22.097Z,1.87
2017-08-20T14:42:50.554Z,1.60
2017-08-20T14:45:19.028Z,1.63
2017-08-20T14:47:47.492Z,1.70
2017-08-20T14:50:16.868Z,1.43
2017-08-20T14:52:45.335Z,1.90
2017-08-20T14:55:13.819Z,1.47
2017-08-20T14:57:42.267Z,1.73
2017-08-20T15:00:10.807Z,1.37
2017-08-20T15:02:39.274Z,1.60
2017-08-20T15:05:07.779Z,2.00
2017-08-20T15:07:36.335Z,1.73
2017-08-20T15:10:04.787Z,1.73
2017-08-20T15:12:33.284Z,1.80
2017-08-20T15:15:01.749Z,1.90
2017-08-20T15:17:30.236Z,2.00
2017-08-20T15:19:58.722Z,1.60
2017-08-20T15:22:27.316Z,2.00
2017-08-20T15:24:55.812Z,2.43
2017-08-20T15:27:24.264Z,2.00
2017-08-20T15:29:52.743Z,1.77
2017-08-20T15:32:21.352Z,1.80
2017-08-20T15:34:49.826Z,1.87
2017-08-20T15:37:18.304Z,1.57
2017-08-20T15:39:46.780Z,2.20
2017-08-20T15:42:15.269Z,1.80
2017-08-20T15:44:43.750Z,1.83
2017-08-20T15:47:12.218Z,1.90
2017-08-20T15:49:40.691Z,1.97
2017-08-20T15:52:09.312Z,1.73
2017-08-20T15:54:37.783Z,2.20
2017-08-20T15:57:06.287Z,1.80
2017-08-20T15:59:34.867Z,1.57
2017-08-20T16:02:03.325Z,1.87
2017-08-20T16:04:31.823Z,2.33
2017-08-20T16:07:00.286Z,1.70
2017-08-20T16:09:28.767Z,1.70
2017-08-20T16:11:57.239Z,1.80
2017-08-20T16:14:26.495Z,2.30
2017-08-20T16:16:54.985Z,1.87
2017-08-20T16:19:23.468Z,1.80
2017-08-20T16:21:51.942Z,1.80
2017-08-20T16:24:20.493Z,1.80
2017-08-20T16:26:48.981Z,2.23
2017-08-20T16:29:18.482Z,1.80
2017-08-20T16:31:46.980Z,2.17
2017-08-20T16:34:15.460Z,2.40
2017-08-20T16:36:43.913Z,2.17
2017-08-20T16:39:12.385Z,2.10
2017-08-20T16:41:41.666Z,2.43
2017-08-20T16:44:10.119Z,2.27
2017-08-20T16:46:38.664Z,2.23
2017-08-20T16:49:07.122Z,1.90
2017-08-20T16:51:36.386Z,1.77
2017-08-20T16:54:04.851Z,2.00
2017-08-20T16:56:33.352Z,2.07
2017-08-20T16:59:01.853Z,1.90
2017-08-20T17:01:30.332Z,2.50
2017-08-20T17:03:58.816Z,1.97
2017-08-20T17:06:27.320Z,2.47
2017-08-20T17:08:56.587Z,2.27
2017-08-20T17:11:25.075Z,1.97
2017-08-20T17:13:53.559Z,2.27
2017-08-20T17:16:21.841Z,2.43
2017-08-20T17:18:50.303Z,2.40
2017-08-20T17:21:18.806Z,3.07
2017-08-20T17:23:47.259Z,2.30
2017-08-20T17:26:15.746Z,2.40
2017-08-20T17:28:44.228Z,3.17
2017-08-20T17:31:12.723Z,2.60
2017-08-20T17:33:41.217Z,1.77
2017-08-20T17:36:09.703Z,2.73
2017-08-20T17:38:38.190Z,2.47
2017-08-20T17:41:07.792Z,2.13
2017-08-20T17:43:36.298Z,2.60
2017-08-20T17:46:04.767Z,2.60
2017-08-20T17:48:33.256Z,2.27
2017-08-20T17:51:01.720Z,2.33
2017-08-20T17:53:30.207Z,2.40
2017-08-20T17:55:58.660Z,2.57
2017-08-20T17:58:27.148Z,2.30
2017-08-20T18:00:55.628Z,2.20
2017-08-20T18:03:24.111Z,2.13
2017-08-20T18:05:52.603Z,2.27
2017-08-20T18:08:21.103Z,1.90
2017-08-20T18:10:49.636Z,2.53
2017-08-20T18:13:18.147Z,2.40
2017-08-20T18:15:46.619Z,2.60
2017-08-20T18:18:15.100Z,2.70
2017-08-20T18:20:43.596Z,2.53
2017-08-20T18:23:13.011Z,2.10
2017-08-20T18:25:41.506Z,2.00
2017-08-20T18:28:10.871Z,2.40
2017-08-20T18:30:39.352Z,1.80
2017-08-20T18:33:07.821Z,1.93
2017-08-20T18:35:36.315Z,2.53
2017-08-20T18:38:04.779Z,2.20
2017-08-20T18:40:33.255Z,2.87
2017-08-20T18:43:01.751Z,2.43
2017-08-20T18:45:30.242Z,2.20
2017-08-20T18:47:58.707Z,2.10
2017-08-20T18:50:27.205Z,2.67
2017-08-20T18:52:55.692Z,2.80
2017-08-20T18:55:24.150Z,2.70
2017-08-20T18:57:52.639Z,2.90
2017-08-20T19:00:21.124Z,2.67
2017-08-20T19:02:49.645Z,3.13
2017-08-20T19:05:18.121Z,3.00
2017-08-20T19:07:46.592Z,2.80
2017-08-20T19:10:15.075Z,2.90
2017-08-20T19:12:43.592Z,2.43
2017-08-20T19:15:12.087Z,3.03
2017-08-20T19:17:40.561Z,2.90
2017-08-20T19:20:09.055Z,2.80
2017-08-20T19:22:37.577Z,3.10
2017-08-20T19:25:06.047Z,3.17
2017-08-20T19:27:34.548Z,3.17
2017-08-20T19:30:03.014Z,2.80
2017-08-20T19:32:31.516Z,2.80
2017-08-20T19:34:59.977Z,2.60
2017-08-20T19:37:28.493Z,3.00
2017-08-20T19:39:56.963Z,2.77
2017-08-20T19:42:25.532Z,3.20
2017-08-20T19:44:54.008Z,2.93
2017-08-20T19:47:22.503Z,2.10
2017-08-20T19:49:50.960Z,2.77
2017-08-20T19:52:19.483Z,2.57
2017-08-20T19:54:47.973Z,3.07
2017-08-20T19:57:16.433Z,3.10
2017-08-20T19:59:44.926Z,3.37
2017-08-20T20:02:13.403Z,3.33
2017-08-20T20:04:41.907Z,3.17
2017-08-20T20:07:10.389Z,2.87
2017-08-20T20:09:38.845Z,3.27
2017-08-20T20:12:07.355Z,3.13
2017-08-20T20:14:35.817Z,3.20
2017-08-20T20:17:04.320Z,3.33
2017-08-20T20:19:32.800Z,2.90
2017-08-20T20:22:01.308Z,3.10
2017-08-20T20:24:29.767Z,3.30
2017-08-20T20:26:58.234Z,3.50
2017-08-20T20:29:26.737Z,3.33
2017-08-20T20:31:55.226Z,2.83
2017-08-20T20:34:23.725Z,3.80
2017-08-20T20:36:52.196Z,4.77
2017-08-20T20:39:20.664Z,4.37
2017-08-20T20:41:49.139Z,3.40
2017-08-20T20:44:17.705Z,2.70
2017-08-20T20:46:46.185Z,3.10
2017-08-20T20:49:14.668Z,2.80
2017-08-20T20:51:43.195Z,3.20
2017-08-20T20:54:11.755Z,3.40
2017-08-20T20:56:40.315Z,3.33
2017-08-20T20:59:08.791Z,2.80
2017-08-20T21:01:37.289Z,2.90
2017-08-20T21:04:05.798Z,2.70
2017-08-20T21:06:34.355Z,3.10
2017-08-20T21:09:02.643Z,3.37
2017-08-20T21:11:31.123Z,2.57
2017-08-20T21:13:59.577Z,3.80
2017-08-20T21:16:28.066Z,3.40
2017-08-20T21:18:56.580Z,2.77
2017-08-20T21:21:25.073Z,2.67
2017-08-20T21:23:53.352Z,2.67
2017-08-20T21:26:21.963Z,2.50
2017-08-20T21:28:50.415Z,2.80
2017-08-20T21:31:18.936Z,2.87
2017-08-20T21:33:48.290Z,2.80
2017-08-20T21:36:16.758Z,2.50
2017-08-20T21:38:45.248Z,2.93
2017-08-20T21:41:13.715Z,2.70
2017-08-20T21:43:42.332Z,2.77
2017-08-20T21:46:10.786Z,2.73
2017-08-20T21:48:39.280Z,3.07
2017-08-20T21:51:07.807Z,3.00
2017-08-20T21:53:36.305Z,3.00
2017-08-20T21:56:05.563Z,2.90
2017-08-20T21:58:34.020Z,2.90
2017-08-20T22:01:02.517Z,2.80
2017-08-20T22:03:30.976Z,3.10
2017-08-20T22:05:59.458Z,3.10
2017-08-20T22:08:27.920Z,2.23
2017-08-20T22:10:57.160Z,3.30
2017-08-20T22:13:25.663Z,2.33
2017-08-20T22:15:54.148Z,2.53
2017-08-20T22:18:22.657Z,2.77
2017-08-20T22:20:51.139Z,3.07
2017-08-20T22:23:20.383Z,2.90
2017-08-20T22:25:48.848Z,2.37
2017-08-20T22:28:17.299Z,3.23
2017-08-20T22:30:46.624Z,2.77
2017-08-20T22:33:15.089Z,2.50
2017-08-20T22:35:44.307Z,2.60
2017-08-20T22:38:12.884Z,3.33
2017-08-20T22:40:42.111Z,2.90
2017-08-20T22:43:10.595Z,3.30
2017-08-20T22:45:39.217Z,2.57
2017-08-20T22:48:07.695Z,2.57
2017-08-20T22:50:36.295Z,3.20
2017-08-20T22:53:04.779Z,3.40
2017-08-20T22:55:33.255Z,2.73
2017-08-20T22:58:01.715Z,3.13
2017-08-20T23:00:30.314Z,3.20
2017-08-20T23:02:58.775Z,2.97
2017-08-20T23:05:27.242Z,3.40
2017-08-20T23:07:55.724Z,2.90
2017-08-20T23:10:24.238Z,3.47
2017-08-20T23:12:52.702Z,3.30
2017-08-20T23:15:20.823Z,3.27
2017-08-20T23:17:49.302Z,3.50
2017-08-20T23:20:17.755Z,2.73
2017-08-20T23:22:46.203Z,2.90
2017-08-20T23:25:14.672Z,2.53
2017-08-20T23:27:43.131Z,2.53
2017-08-20T23:30:11.712Z,2.63
2017-08-20T23:32:40.244Z,2.80
2017-08-20T23:35:08.727Z,3.03
2017-08-20T23:37:37.179Z,2.70
2017-08-20T23:40:06.400Z,2.90
2017-08-20T23:42:34.886Z,3.00
2017-08-20T23:45:03.347Z,2.97
2017-08-20T23:47:31.887Z,2.80
2017-08-20T23:50:00.346Z,3.20
2017-08-20T23:52:28.835Z,3.20
2017-08-20T23:54:57.315Z,2.90
2017-08-20T23:57:25.798Z,3.03
2017-08-20T23:59:54.274Z,2.67
